aviador You're here:

KCOU Decoded Metar

COLUMBIA in MO, USA
Report Time2017-06-29 11:54:00
UTC Time2017-06-29 12:26:43
Flight Rules vfr VFR
Wind120° at 06 kt
W.Decomp.*RWY 13: 5.8 kt HW 1.3 kt LCW
RWY 20: 0.7 kt HW 6 kt LCW
W.Rank120° ranks 8
Current wind is below 120° avg. (6.6)
Visibility9999 m
Phenomena:Vicinity showers
Clouds:Overcast 060 Hf
Expected CloudBase > 800 ft AGL from Temp-Dew spread
Ceiling6,000 ft
Temp19°C (ISA +6)
Dew Point17°C (88% RH)
QNH1014 hPa
Density Alt1,791 ft
Elevation889 ft
Report Wrong Elevation
Raw Report
KCOU 291154Z 12006KT 10SM OVC060 19/17 A2994 RMK AO2 RAE01B36E54
SLP132 VCSH P0000 60006 70006 T01940172 10244 20189 58003=

Extra information for KCOU:More info

Metar Taf Metar & Taf Last 4 Metars F.Rules Stats Wind Profile Meteogram Temp Stats Airport Information Weather charts Add Link Nearby VenuesMetar ALERT Operation Metar Decoded Social comments

AIRNAV info for KCOU